sensor_id;sensor_type;location;lat;lon;timestamp;pressure;altitude;pressure_sealevel;temperature;humidity
70314;BME280;57725;47.526;18.986;2023-01-30T00:01:05;100376.22;;;3.52;94.54
70314;BME280;57725;47.526;18.986;2023-01-30T00:03:31;100371.06;;;3.52;94.99
70314;BME280;57725;47.526;18.986;2023-01-30T00:05:58;100370.19;;;3.51;94.53
70314;BME280;57725;47.526;18.986;2023-01-30T00:08:25;100369.34;;;3.49;94.89
70314;BME280;57725;47.526;18.986;2023-01-30T00:10:51;100371.06;;;3.49;94.46
70314;BME280;57725;47.526;18.986;2023-01-30T00:13:16;100371.06;;;3.50;94.69
70314;BME280;57725;47.526;18.986;2023-01-30T00:15:44;100366.75;;;3.51;94.64
70314;BME280;57725;47.526;18.986;2023-01-30T00:18:11;100367.63;;;3.50;94.74
70314;BME280;57725;47.526;18.986;2023-01-30T00:20:39;100365.03;;;3.50;94.49
70314;BME280;57725;47.526;18.986;2023-01-30T00:23:08;100370.22;;;3.48;94.62
70314;BME280;57725;47.526;18.986;2023-01-30T00:25:35;100365.91;;;3.49;94.55
70314;BME280;57725;47.526;18.986;2023-01-30T00:28:03;100360.75;;;3.47;94.52
70314;BME280;57725;47.526;18.986;2023-01-30T00:30:31;100367.63;;;3.48;94.85
70314;BME280;57725;47.526;18.986;2023-01-30T00:32:59;100357.28;;;3.47;94.50
70314;BME280;57725;47.526;18.986;2023-01-30T00:35:29;100352.97;;;3.47;94.41
70314;BME280;57725;47.526;18.986;2023-01-30T00:37:57;100359.03;;;3.46;94.77
70314;BME280;57725;47.526;18.986;2023-01-30T00:40:27;100352.13;;;3.47;94.41
70314;BME280;57725;47.526;18.986;2023-01-30T00:42:53;100348.69;;;3.46;94.81
70314;BME280;57725;47.526;18.986;2023-01-30T00:45:37;100354.75;;;3.45;94.30
70314;BME280;57725;47.526;18.986;2023-01-30T00:48:23;100348.72;;;3.45;94.49
70314;BME280;57725;47.526;18.986;2023-01-30T00:50:50;100348.72;;;3.45;94.19
70314;BME280;57725;47.526;18.986;2023-01-30T00:53:16;100342.69;;;3.43;94.16
70314;BME280;57725;47.526;18.986;2023-01-30T00:55:44;100340.97;;;3.45;94.18
70314;BME280;57725;47.526;18.986;2023-01-30T00:58:11;100336.66;;;3.44;94.53
70314;BME280;57725;47.526;18.986;2023-01-30T01:00:37;100331.50;;;3.42;94.57
70314;BME280;57725;47.526;18.986;2023-01-30T01:03:06;100328.91;;;3.42;94.13
70314;BME280;57725;47.526;18.986;2023-01-30T01:05:34;100328.06;;;3.42;94.16
70314;BME280;57725;47.526;18.986;2023-01-30T01:08:02;100328.06;;;3.40;94.19
70314;BME280;57725;47.526;18.986;2023-01-30T01:10:30;100329.78;;;3.41;94.21
70314;BME280;57725;47.526;18.986;2023-01-30T01:12:58;100329.78;;;3.41;94.12
70314;BME280;57725;47.526;18.986;2023-01-30T01:15:24;100326.34;;;3.41;94.42
70314;BME280;57725;47.526;18.986;2023-01-30T01:17:53;100315.16;;;3.36;94.54
70314;BME280;57725;47.526;18.986;2023-01-30T01:20:19;100317.72;;;3.40;94.22
70314;BME280;57725;47.526;18.986;2023-01-30T01:22:51;100317.72;;;3.40;94.25
70314;BME280;57725;47.526;18.986;2023-01-30T01:25:18;100315.13;;;3.39;94.53
70314;BME280;57725;47.526;18.986;2023-01-30T01:27:44;100313.41;;;3.39;94.50
70314;BME280;57725;47.526;18.986;2023-01-30T01:30:13;100312.56;;;3.39;94.67
70314;BME280;57725;47.526;18.986;2023-01-30T01:32:38;100305.69;;;3.36;94.37
70314;BME280;57725;47.526;18.986;2023-01-30T01:35:04;100302.22;;;3.37;94.32
70314;BME280;57725;47.526;18.986;2023-01-30T01:37:32;100294.47;;;3.37;94.39
70314;BME280;57725;47.526;18.986;2023-01-30T01:39:58;100301.34;;;3.38;94.21
70314;BME280;57725;47.526;18.986;2023-01-30T01:42:44;100297.06;;;3.36;94.67
70314;BME280;57725;47.526;18.986;2023-01-30T01:48:07;100278.16;;;3.31;94.36
70314;BME280;57725;47.526;18.986;2023-01-30T01:50:48;100278.16;;;3.34;94.78
70314;BME280;57725;47.526;18.986;2023-01-30T01:53:18;100264.38;;;3.33;94.80
70314;BME280;57725;47.526;18.986;2023-01-30T01:55:49;100267.81;;;3.34;94.50
70314;BME280;57725;47.526;18.986;2023-01-30T01:58:22;100266.94;;;3.33;94.86
70314;BME280;57725;47.526;18.986;2023-01-30T02:00:49;100263.50;;;3.33;94.32
70314;BME280;57725;47.526;18.986;2023-01-30T02:03:21;100260.06;;;3.32;94.35
70314;BME280;57725;47.526;18.986;2023-01-30T02:05:50;100253.19;;;3.31;94.36
70314;BME280;57725;47.526;18.986;2023-01-30T02:08:21;100243.69;;;3.32;94.58
70314;BME280;57725;47.526;18.986;2023-01-30T02:11:04;100244.56;;;3.31;94.68
70314;BME280;57725;47.526;18.986;2023-01-30T02:13:31;100248.00;;;3.31;94.09
70314;BME280;57725;47.526;18.986;2023-01-30T02:16:01;100238.53;;;3.30;94.33
70314;BME280;57725;47.526;18.986;2023-01-30T02:18:31;100235.97;;;3.30;94.58
70314;BME280;57725;47.526;18.986;2023-01-30T02:31:51;100233.38;;;3.28;94.29
70314;BME280;57725;47.526;18.986;2023-01-30T02:45:17;100196.34;;;3.25;94.57
70314;BME280;57725;47.526;18.986;2023-01-30T02:48:02;100186.94;;;3.22;94.45
70314;BME280;57725;47.526;18.986;2023-01-30T02:50:32;100184.31;;;3.24;94.34
70314;BME280;57725;47.526;18.986;2023-01-30T02:53:04;100181.72;;;3.24;94.25
70314;BME280;57725;47.526;18.986;2023-01-30T02:55:30;100175.75;;;3.22;94.57
70314;BME280;57725;47.526;18.986;2023-01-30T02:57:55;100173.97;;;3.24;94.07
70314;BME280;57725;47.526;18.986;2023-01-30T03:05:53;100164.53;;;3.23;94.13
70314;BME280;57725;47.526;18.986;2023-01-30T03:11:11;100161.09;;;3.21;94.28
70314;BME280;57725;47.526;18.986;2023-01-30T03:16:27;100166.25;;;3.22;94.54
70314;BME280;57725;47.526;18.986;2023-01-30T03:19:11;100155.06;;;3.20;94.12
70314;BME280;57725;47.526;18.986;2023-01-30T03:21:41;100156.81;;;3.20;94.37
70314;BME280;57725;47.526;18.986;2023-01-30T03:24:10;100158.53;;;3.19;94.23
70314;BME280;57725;47.526;18.986;2023-01-30T03:26:51;100156.81;;;3.20;94.33
70314;BME280;57725;47.526;18.986;2023-01-30T03:29:21;100156.81;;;3.18;94.11
70314;BME280;57725;47.526;18.986;2023-01-30T03:31:47;100161.97;;;3.18;94.24
70314;BME280;57725;47.526;18.986;2023-01-30T03:34:14;100158.53;;;3.18;93.89
70314;BME280;57725;47.526;18.986;2023-01-30T03:36:42;100146.50;;;3.15;93.85
70314;BME280;57725;47.526;18.986;2023-01-30T03:39:14;100153.38;;;3.18;94.21
70314;BME280;57725;47.526;18.986;2023-01-30T03:41:40;100148.22;;;3.15;94.26
70314;BME280;57725;47.526;18.986;2023-01-30T03:44:05;100144.75;;;3.17;93.97
70314;BME280;57725;47.526;18.986;2023-01-30T03:46:30;100142.19;;;3.16;94.06
70314;BME280;57725;47.526;18.986;2023-01-30T03:48:58;100131.00;;;3.12;93.92
70314;BME280;57725;47.526;18.986;2023-01-30T03:51:24;100149.06;;;3.15;94.37
70314;BME280;57725;47.526;18.986;2023-01-30T03:53:49;100145.66;;;3.13;93.98
70314;BME280;57725;47.526;18.986;2023-01-30T03:56:17;100146.50;;;3.15;93.89
70314;BME280;57725;47.526;18.986;2023-01-30T03:58:43;100136.16;;;3.15;94.37
70314;BME280;57725;47.526;18.986;2023-01-30T04:01:08;100128.44;;;3.12;93.72
70314;BME280;57725;47.526;18.986;2023-01-30T04:03:38;100136.16;;;3.14;94.10
70314;BME280;57725;47.526;18.986;2023-01-30T04:06:08;100127.56;;;3.13;93.98
70314;BME280;57725;47.526;18.986;2023-01-30T04:08:33;100124.97;;;3.12;93.84
70314;BME280;57725;47.526;18.986;2023-01-30T04:10:59;100118.09;;;3.12;94.07
70314;BME280;57725;47.526;18.986;2023-01-30T04:13:24;100117.28;;;3.10;94.00
70314;BME280;57725;47.526;18.986;2023-01-30T04:15:52;100118.13;;;3.11;94.36
70314;BME280;57725;47.526;18.986;2023-01-30T04:18:20;100121.56;;;3.11;94.31
70314;BME280;57725;47.526;18.986;2023-01-30T04:20:45;100121.56;;;3.11;94.29
70314;BME280;57725;47.526;18.986;2023-01-30T04:23:13;100123.31;;;3.11;94.21
70314;BME280;57725;47.526;18.986;2023-01-30T04:25:44;100115.56;;;3.11;93.53
70314;BME280;57725;47.526;18.986;2023-01-30T04:28:12;100111.25;;;3.10;94.04
70314;BME280;57725;47.526;18.986;2023-01-30T04:30:37;100110.38;;;3.11;94.46
70314;BME280;57725;47.526;18.986;2023-01-30T04:33:05;100106.94;;;3.09;94.08
70314;BME280;57725;47.526;18.986;2023-01-30T04:35:33;100103.50;;;3.08;94.09
70314;BME280;57725;47.526;18.986;2023-01-30T04:37:58;100091.47;;;3.06;93.93
70314;BME280;57725;47.526;18.986;2023-01-30T04:40:39;100087.16;;;3.08;94.37
70314;BME280;57725;47.526;18.986;2023-01-30T04:43:04;100089.75;;;3.08;94.07
70314;BME280;57725;47.526;18.986;2023-01-30T04:45:32;100082.84;;;3.07;94.07
70314;BME280;57725;47.526;18.986;2023-01-30T04:48:00;100081.13;;;3.07;94.05
70314;BME280;57725;47.526;18.986;2023-01-30T04:50:25;100075.13;;;3.05;94.25
70314;BME280;57725;47.526;18.986;2023-01-30T04:52:50;100084.59;;;3.06;94.09
70314;BME280;57725;47.526;18.986;2023-01-30T04:55:18;100082.00;;;3.03;94.19
70314;BME280;57725;47.526;18.986;2023-01-30T04:57:46;100081.13;;;3.06;94.43
70314;BME280;57725;47.526;18.986;2023-01-30T05:00:14;100075.13;;;3.04;93.96
70314;BME280;57725;47.526;18.986;2023-01-30T05:02:40;100066.53;;;3.03;94.10
70314;BME280;57725;47.526;18.986;2023-01-30T05:05:05;100069.97;;;3.04;93.86
70314;BME280;57725;47.526;18.986;2023-01-30T05:07:31;100071.69;;;3.03;94.12
70314;BME280;57725;47.526;18.986;2023-01-30T05:09:56;100060.50;;;3.03;94.10
70314;BME280;57725;47.526;18.986;2023-01-30T05:12:24;100063.97;;;3.00;94.30
70314;BME280;57725;47.526;18.986;2023-01-30T05:14:52;100058.78;;;3.02;94.16
70314;BME280;57725;47.526;18.986;2023-01-30T05:17:17;100067.38;;;3.02;93.69
70314;BME280;57725;47.526;18.986;2023-01-30T05:19:45;100074.28;;;3.03;94.21
70314;BME280;57725;47.526;18.986;2023-01-30T05:22:13;100067.41;;;3.01;94.01
70314;BME280;57725;47.526;18.986;2023-01-30T05:24:38;100064.81;;;3.01;93.85
70314;BME280;57725;47.526;18.986;2023-01-30T05:27:04;100069.13;;;3.00;94.03
70314;BME280;57725;47.526;18.986;2023-01-30T05:29:32;100066.59;;;2.99;94.40
70314;BME280;57725;47.526;18.986;2023-01-30T05:31:57;100063.97;;;3.00;93.94
70314;BME280;57725;47.526;18.986;2023-01-30T05:34:25;100061.44;;;2.97;93.95
70314;BME280;57725;47.526;18.986;2023-01-30T05:36:50;100060.56;;;3.00;93.73
70314;BME280;57725;47.526;18.986;2023-01-30T05:39:18;100058.84;;;2.99;93.94
70314;BME280;57725;47.526;18.986;2023-01-30T05:41:43;100064.84;;;2.99;94.19
70314;BME280;57725;47.526;18.986;2023-01-30T05:44:09;100057.13;;;2.98;93.94
70314;BME280;57725;47.526;18.986;2023-01-30T05:46:36;100053.66;;;2.99;94.03
70314;BME280;57725;47.526;18.986;2023-01-30T05:49:02;100051.97;;;2.96;94.02
70314;BME280;57725;47.526;18.986;2023-01-30T05:51:29;100049.38;;;2.96;93.92
70314;BME280;57725;47.526;18.986;2023-01-30T05:53:54;100049.38;;;2.96;94.14
70314;BME280;57725;47.526;18.986;2023-01-30T05:56:20;100055.41;;;2.95;93.66
70314;BME280;57725;47.526;18.986;2023-01-30T05:58:53;100060.56;;;2.95;93.85
70314;BME280;57725;47.526;18.986;2023-01-30T06:01:23;100063.16;;;2.95;93.91
70314;BME280;57725;47.526;18.986;2023-01-30T06:03:51;100062.31;;;2.95;93.81
70314;BME280;57725;47.526;18.986;2023-01-30T06:06:17;100062.31;;;2.95;94.07
70314;BME280;57725;47.526;18.986;2023-01-30T06:08:43;100051.97;;;2.93;94.04
70314;BME280;57725;47.526;18.986;2023-01-30T06:11:17;100052.84;;;2.94;93.96
70314;BME280;57725;47.526;18.986;2023-01-30T06:13:43;100059.72;;;2.95;93.91
70314;BME280;57725;47.526;18.986;2023-01-30T06:16:12;100052.84;;;2.94;94.00
70314;BME280;57725;47.526;18.986;2023-01-30T06:18:41;100054.56;;;2.93;93.96
70314;BME280;57725;47.526;18.986;2023-01-30T06:21:07;100052.84;;;2.92;94.04
70314;BME280;57725;47.526;18.986;2023-01-30T06:23:34;100063.19;;;2.92;94.06
70314;BME280;57725;47.526;18.986;2023-01-30T06:26:00;100059.75;;;2.91;93.65
70314;BME280;57725;47.526;18.986;2023-01-30T06:28:26;100068.34;;;2.92;93.86
70314;BME280;57725;47.526;18.986;2023-01-30T06:30:54;100067.50;;;2.91;93.83
70314;BME280;57725;47.526;18.986;2023-01-30T06:33:19;100059.75;;;2.90;94.00
70314;BME280;57725;47.526;18.986;2023-01-30T06:35:49;100049.44;;;2.88;93.70
70314;BME280;57725;47.526;18.986;2023-01-30T06:38:18;100052.00;;;2.90;93.99
70314;BME280;57725;47.526;18.986;2023-01-30T06:40:46;100046.84;;;2.88;93.98
70314;BME280;57725;47.526;18.986;2023-01-30T06:43:12;100043.41;;;2.89;93.50
70314;BME280;57725;47.526;18.986;2023-01-30T06:45:38;100042.53;;;2.90;93.76
70314;BME280;57725;47.526;18.986;2023-01-30T06:48:06;100036.50;;;2.88;93.83
70314;BME280;57725;47.526;18.986;2023-01-30T06:50:34;100035.69;;;2.88;93.66
70314;BME280;57725;47.526;18.986;2023-01-30T06:53:09;100036.50;;;2.88;93.88
70314;BME280;57725;47.526;18.986;2023-01-30T06:55:40;100037.41;;;2.87;93.66
70314;BME280;57725;47.526;18.986;2023-01-30T06:58:11;100036.56;;;2.85;93.85
70314;BME280;57725;47.526;18.986;2023-01-30T07:00:40;100029.69;;;2.86;93.91
70314;BME280;57725;47.526;18.986;2023-01-30T07:03:16;100032.25;;;2.87;94.27
70314;BME280;57725;47.526;18.986;2023-01-30T07:05:43;100027.94;;;2.86;94.05
70314;BME280;57725;47.526;18.986;2023-01-30T07:08:10;100028.81;;;2.87;93.60
70314;BME280;57725;47.526;18.986;2023-01-30T07:10:35;100032.25;;;2.86;94.00
70314;BME280;57725;47.526;18.986;2023-01-30T07:13:03;100032.25;;;2.86;93.98
70314;BME280;57725;47.526;18.986;2023-01-30T07:15:34;100024.50;;;2.86;94.19
70314;BME280;57725;47.526;18.986;2023-01-30T07:17:59;100019.38;;;2.81;93.83
70314;BME280;57725;47.526;18.986;2023-01-30T07:20:27;100029.69;;;2.86;94.02
70314;BME280;57725;47.526;18.986;2023-01-30T07:22:55;100026.25;;;2.85;93.86
70314;BME280;57725;47.526;18.986;2023-01-30T07:25:23;100026.25;;;2.84;93.91
70314;BME280;57725;47.526;18.986;2023-01-30T07:27:53;100027.09;;;2.84;94.28
70314;BME280;57725;47.526;18.986;2023-01-30T07:30:21;100025.38;;;2.85;94.01
70314;BME280;57725;47.526;18.986;2023-01-30T07:32:51;100024.56;;;2.80;94.09
70314;BME280;57725;47.526;18.986;2023-01-30T07:35:17;100028.81;;;2.85;94.04
70314;BME280;57725;47.526;18.986;2023-01-30T07:37:45;100025.41;;;2.82;93.95
70314;BME280;57725;47.526;18.986;2023-01-30T07:40:11;100033.13;;;2.85;94.14
70314;BME280;57725;47.526;18.986;2023-01-30T07:42:37;100025.38;;;2.85;94.05
70314;BME280;57725;47.526;18.986;2023-01-30T07:45:10;100015.94;;;2.81;94.17
70314;BME280;57725;47.526;18.986;2023-01-30T07:47:35;100011.63;;;2.83;94.02
70314;BME280;57725;47.526;18.986;2023-01-30T07:50:03;100009.03;;;2.83;94.10
70314;BME280;57725;47.526;18.986;2023-01-30T07:52:29;100011.63;;;2.83;94.17
70314;BME280;57725;47.526;18.986;2023-01-30T07:54:54;100014.22;;;2.81;94.13
70314;BME280;57725;47.526;18.986;2023-01-30T07:57:22;100015.06;;;2.83;94.25
70314;BME280;57725;47.526;18.986;2023-01-30T07:59:47;100017.66;;;2.83;94.14
70314;BME280;57725;47.526;18.986;2023-01-30T08:02:15;100017.66;;;2.82;94.16
70314;BME280;57725;47.526;18.986;2023-01-30T08:04:45;100011.63;;;2.83;93.85
70314;BME280;57725;47.526;18.986;2023-01-30T08:07:10;100008.19;;;2.84;94.12
70314;BME280;57725;47.526;18.986;2023-01-30T08:09:36;100003.03;;;2.82;94.18
70314;BME280;57725;47.526;18.986;2023-01-30T08:12:03;99989.25;;;2.82;94.21
70314;BME280;57725;47.526;18.986;2023-01-30T08:14:31;99969.44;;;2.82;93.90
70314;BME280;57725;47.526;18.986;2023-01-30T08:16:56;99941.94;;;2.78;94.34
70314;BME280;57725;47.526;18.986;2023-01-30T08:19:22;99948.81;;;2.81;93.94
70314;BME280;57725;47.526;18.986;2023-01-30T08:21:50;99936.75;;;2.81;94.11
70314;BME280;57725;47.526;18.986;2023-01-30T08:24:17;99936.78;;;2.80;93.90
70314;BME280;57725;47.526;18.986;2023-01-30T08:26:42;99937.63;;;2.80;94.50
70314;BME280;57725;47.526;18.986;2023-01-30T08:29:08;99951.38;;;2.81;94.24
70314;BME280;57725;47.526;18.986;2023-01-30T08:31:33;99944.50;;;2.81;94.34
70314;BME280;57725;47.526;18.986;2023-01-30T08:34:01;99936.75;;;2.81;94.93
70314;BME280;57725;47.526;18.986;2023-01-30T08:36:27;99932.47;;;2.80;94.33
70314;BME280;57725;47.526;18.986;2023-01-30T08:38:52;99935.91;;;2.81;93.96
70314;BME280;57725;47.526;18.986;2023-01-30T08:41:20;99936.78;;;2.78;94.08
70314;BME280;57725;47.526;18.986;2023-01-30T08:43:54;99935.91;;;2.81;94.31
70314;BME280;57725;47.526;18.986;2023-01-30T08:46:21;99936.75;;;2.81;94.21
70314;BME280;57725;47.526;18.986;2023-01-30T08:48:47;99937.63;;;2.80;94.23
70314;BME280;57725;47.526;18.986;2023-01-30T08:51:13;99928.16;;;2.81;94.14
70314;BME280;57725;47.526;18.986;2023-01-30T08:53:39;99929.88;;;2.80;94.28
70314;BME280;57725;47.526;18.986;2023-01-30T08:56:04;99929.00;;;2.81;94.60
70314;BME280;57725;47.526;18.986;2023-01-30T08:58:30;99935.03;;;2.82;94.46
70314;BME280;57725;47.526;18.986;2023-01-30T09:00:58;99938.47;;;2.81;94.33
70314;BME280;57725;47.526;18.986;2023-01-30T09:03:23;99935.03;;;2.80;94.43
70314;BME280;57725;47.526;18.986;2023-01-30T09:05:54;99921.28;;;2.80;94.43
70314;BME280;57725;47.526;18.986;2023-01-30T09:08:20;99922.13;;;2.80;94.26
70314;BME280;57725;47.526;18.986;2023-01-30T09:10:49;99930.75;;;2.79;94.47
70314;BME280;57725;47.526;18.986;2023-01-30T09:13:14;99923.91;;;2.77;94.56
70314;BME280;57725;47.526;18.986;2023-01-30T09:15:42;99922.13;;;2.80;94.30
70314;BME280;57725;47.526;18.986;2023-01-30T09:18:09;99914.41;;;2.77;94.18
70314;BME280;57725;47.526;18.986;2023-01-30T09:20:37;99923.84;;;2.80;94.52
70314;BME280;57725;47.526;18.986;2023-01-30T09:23:10;99912.69;;;2.79;93.81
70314;BME280;57725;47.526;18.986;2023-01-30T09:25:35;99907.50;;;2.79;94.44
70314;BME280;57725;47.526;18.986;2023-01-30T09:28:10;99905.00;;;2.76;94.55
70314;BME280;57725;47.526;18.986;2023-01-30T09:30:36;99903.19;;;2.80;94.33
70314;BME280;57725;47.526;18.986;2023-01-30T09:33:01;99899.75;;;2.79;94.41
70314;BME280;57725;47.526;18.986;2023-01-30T09:35:29;99888.56;;;2.80;94.33
70314;BME280;57725;47.526;18.986;2023-01-30T09:37:55;99892.88;;;2.78;94.35
70314;BME280;57725;47.526;18.986;2023-01-30T09:40:25;99893.75;;;2.79;94.50
70314;BME280;57725;47.526;18.986;2023-01-30T09:45:42;99874.81;;;2.80;94.51
70314;BME280;57725;47.526;18.986;2023-01-30T09:56:12;99866.19;;;2.79;94.58
70314;BME280;57725;47.526;18.986;2023-01-30T09:58:50;99846.41;;;2.80;94.28
70314;BME280;57725;47.526;18.986;2023-01-30T10:06:53;99838.66;;;2.80;94.37
70314;BME280;57725;47.526;18.986;2023-01-30T10:09:32;99835.22;;;2.81;94.43
70314;BME280;57725;47.526;18.986;2023-01-30T10:12:04;99828.34;;;2.80;94.36
70314;BME280;57725;47.526;18.986;2023-01-30T10:22:45;99817.16;;;2.79;94.68
70314;BME280;57725;47.526;18.986;2023-01-30T10:25:28;99806.81;;;2.79;94.39
70314;BME280;57725;47.526;18.986;2023-01-30T10:28:13;99787.88;;;2.79;94.88
70314;BME280;57725;47.526;18.986;2023-01-30T10:30:44;99790.47;;;2.80;94.32
70314;BME280;57725;47.526;18.986;2023-01-30T10:38:49;99767.22;;;2.82;94.59
70314;BME280;57725;47.526;18.986;2023-01-30T10:44:03;99758.59;;;2.81;94.70
70314;BME280;57725;47.526;18.986;2023-01-30T10:55:04;99733.66;;;2.82;94.93
70314;BME280;57725;47.526;18.986;2023-01-30T11:00:37;99707.81;;;2.82;94.68
70314;BME280;57725;47.526;18.986;2023-01-30T11:03:09;99696.66;;;2.81;94.87
70314;BME280;57725;47.526;18.986;2023-01-30T11:05:48;99694.06;;;2.81;94.63
70314;BME280;57725;47.526;18.986;2023-01-30T11:08:23;99681.16;;;2.81;94.65
70314;BME280;57725;47.526;18.986;2023-01-30T11:10:50;99685.47;;;2.79;94.68
70314;BME280;57725;47.526;18.986;2023-01-30T11:13:21;99676.00;;;2.80;94.64
70314;BME280;57725;47.526;18.986;2023-01-30T11:15:50;99679.44;;;2.82;94.68
70314;BME280;57725;47.526;18.986;2023-01-30T11:18:18;99671.69;;;2.82;94.65
70314;BME280;57725;47.526;18.986;2023-01-30T11:20:59;99667.38;;;2.82;94.98
70314;BME280;57725;47.526;18.986;2023-01-30T11:25:56;99645.88;;;2.80;94.68
70314;BME280;57725;47.526;18.986;2023-01-30T11:28:25;99651.00;;;2.83;94.74
70314;BME280;57725;47.526;18.986;2023-01-30T11:30:58;99655.31;;;2.83;94.63
70314;BME280;57725;47.526;18.986;2023-01-30T11:33:35;99643.25;;;2.83;95.23
70314;BME280;57725;47.526;18.986;2023-01-30T11:36:02;99638.09;;;2.83;94.76
70314;BME280;57725;47.526;18.986;2023-01-30T11:38:35;99634.66;;;2.84;94.74
70314;BME280;57725;47.526;18.986;2023-01-30T11:43:34;99612.28;;;2.83;94.83
70314;BME280;57725;47.526;18.986;2023-01-30T11:46:01;99610.56;;;2.82;94.82
70314;BME280;57725;47.526;18.986;2023-01-30T11:48:29;99613.97;;;2.84;94.48
70314;BME280;57725;47.526;18.986;2023-01-30T11:51:05;99625.16;;;2.85;94.80
70314;BME280;57725;47.526;18.986;2023-01-30T11:53:49;99621.72;;;2.84;94.61
70314;BME280;57725;47.526;18.986;2023-01-30T11:56:33;99607.94;;;2.85;94.92
70314;BME280;57725;47.526;18.986;2023-01-30T11:59:03;99606.25;;;2.84;94.86
70314;BME280;57725;47.526;18.986;2023-01-30T12:01:31;99601.94;;;2.85;94.74
70314;BME280;57725;47.526;18.986;2023-01-30T12:04:05;99604.50;;;2.85;94.81
70314;BME280;57725;47.526;18.986;2023-01-30T12:06:37;99606.22;;;2.86;94.75
70314;BME280;57725;47.526;18.986;2023-01-30T12:09:32;99601.91;;;2.86;94.87
70314;BME280;57725;47.526;18.986;2023-01-30T12:11:58;99606.22;;;2.86;94.96
70314;BME280;57725;47.526;18.986;2023-01-30T12:14:39;99599.34;;;2.86;94.91
70314;BME280;57725;47.526;18.986;2023-01-30T12:24:59;99554.56;;;2.87;94.60
70314;BME280;57725;47.526;18.986;2023-01-30T12:30:26;99532.19;;;2.88;94.58
70314;BME280;57725;47.526;18.986;2023-01-30T12:33:00;99534.75;;;2.88;94.83
70314;BME280;57725;47.526;18.986;2023-01-30T12:35:45;99532.19;;;2.88;94.75
70314;BME280;57725;47.526;18.986;2023-01-30T12:47:06;99534.69;;;2.89;94.81
70314;BME280;57725;47.526;18.986;2023-01-30T12:49:46;99539.00;;;2.89;94.73
70314;BME280;57725;47.526;18.986;2023-01-30T12:52:31;99539.88;;;2.89;94.52
70314;BME280;57725;47.526;18.986;2023-01-30T13:00:33;99521.78;;;2.91;94.87
70314;BME280;57725;47.526;18.986;2023-01-30T13:06:05;99511.44;;;2.91;94.79
70314;BME280;57725;47.526;18.986;2023-01-30T13:11:44;99495.94;;;2.91;95.26
70314;BME280;57725;47.526;18.986;2023-01-30T13:19:43;99475.28;;;2.92;94.75
70314;BME280;57725;47.526;18.986;2023-01-30T13:22:24;99477.84;;;2.92;94.88
70314;BME280;57725;47.526;18.986;2023-01-30T13:24:55;99476.16;;;2.91;94.55
70314;BME280;57725;47.526;18.986;2023-01-30T13:27:31;99480.44;;;2.92;95.01
70314;BME280;57725;47.526;18.986;2023-01-30T13:29:59;99479.56;;;2.94;94.85
70314;BME280;57725;47.526;18.986;2023-01-30T13:32:36;99480.44;;;2.92;94.74
70314;BME280;57725;47.526;18.986;2023-01-30T13:35:14;99479.56;;;2.94;94.65
70314;BME280;57725;47.526;18.986;2023-01-30T13:37:41;99495.91;;;2.94;94.79
70314;BME280;57725;47.526;18.986;2023-01-30T13:40:18;99489.88;;;2.94;94.83
70314;BME280;57725;47.526;18.986;2023-01-30T13:45:34;99476.09;;;2.95;94.82
70314;BME280;57725;47.526;18.986;2023-01-30T13:54:09;99473.53;;;2.95;94.73
70314;BME280;57725;47.526;18.986;2023-01-30T13:56:40;99465.78;;;2.95;95.05
70314;BME280;57725;47.526;18.986;2023-01-30T14:09:34;99455.41;;;2.98;94.85
70314;BME280;57725;47.526;18.986;2023-01-30T14:12:00;99442.69;;;2.87;94.81
70314;BME280;57725;47.526;18.986;2023-01-30T14:14:30;99467.44;;;2.99;94.57
70314;BME280;57725;47.526;18.986;2023-01-30T14:17:13;99468.28;;;2.99;94.95
70314;BME280;57725;47.526;18.986;2023-01-30T14:19:57;99465.72;;;2.98;94.87
70314;BME280;57725;47.526;18.986;2023-01-30T14:22:38;99478.63;;;2.99;94.59
70314;BME280;57725;47.526;18.986;2023-01-30T14:25:42;99477.69;;;3.00;94.84
70314;BME280;57725;47.526;18.986;2023-01-30T14:38:21;99484.56;;;3.01;94.71
70314;BME280;57725;47.526;18.986;2023-01-30T14:51:46;99475.94;;;3.02;95.05
70314;BME280;57725;47.526;18.986;2023-01-30T15:04:44;99475.94;;;3.02;94.80
70314;BME280;57725;47.526;18.986;2023-01-30T15:07:25;99481.09;;;3.04;94.63
70314;BME280;57725;47.526;18.986;2023-01-30T15:09:55;99482.81;;;3.03;94.73
70314;BME280;57725;47.526;18.986;2023-01-30T15:15:10;99471.63;;;3.04;95.18
70314;BME280;57725;47.526;18.986;2023-01-30T15:31:32;99478.50;;;3.04;94.68
70314;BME280;57725;47.526;18.986;2023-01-30T15:33:58;99486.22;;;3.05;94.81
70314;BME280;57725;47.526;18.986;2023-01-30T15:36:29;99484.50;;;3.06;94.68
70314;BME280;57725;47.526;18.986;2023-01-30T15:41:24;99494.88;;;3.03;94.96
70314;BME280;57725;47.526;18.986;2023-01-30T15:44:05;99488.81;;;3.05;94.88
70314;BME280;57725;47.526;18.986;2023-01-30T15:52:14;99487.09;;;3.06;95.02
70314;BME280;57725;47.526;18.986;2023-01-30T15:54:40;99484.53;;;3.04;94.56
70314;BME280;57725;47.526;18.986;2023-01-30T15:57:18;99487.06;;;3.07;94.93
70314;BME280;57725;47.526;18.986;2023-01-30T15:59:48;99475.94;;;3.02;94.81
70314;BME280;57725;47.526;18.986;2023-01-30T16:02:19;99494.84;;;3.06;94.94
70314;BME280;57725;47.526;18.986;2023-01-30T16:04:47;99493.09;;;3.06;94.88
70314;BME280;57725;47.526;18.986;2023-01-30T16:07:15;99490.53;;;3.06;95.04
70314;BME280;57725;47.526;18.986;2023-01-30T16:09:43;99487.09;;;3.06;94.79
70314;BME280;57725;47.526;18.986;2023-01-30T16:12:25;99485.34;;;3.08;94.75
70314;BME280;57725;47.526;18.986;2023-01-30T16:14:53;99478.47;;;3.07;95.06
70314;BME280;57725;47.526;18.986;2023-01-30T16:17:29;99488.78;;;3.07;94.89
70314;BME280;57725;47.526;18.986;2023-01-30T16:19:59;99484.47;;;3.07;94.60
70314;BME280;57725;47.526;18.986;2023-01-30T16:22:31;99484.47;;;3.07;94.90
70314;BME280;57725;47.526;18.986;2023-01-30T16:25:00;99485.34;;;3.08;94.63